Time;durP1;ratioP1;P1;durP2;ratioP2;P2;SDS_P1;SDS_P2;PMS_P1;PMS_P2;Temp;Humidity;BMP_temperature;BMP_pressure;BME280_temperature;BME280_humidity;BME280_pressure;Samples;Min_cycle;Max_cycle;Signal;HPM_P1;HPM_P2
2021/07/25 00:05:23;;;;;;;30.20;16.10;;;;;;;17.41;84.59;98810.80;4244241;84;21055;-83
2021/07/25 00:12:00;;;;;;;27.00;16.67;;;;;;;17.37;85.12;98816.39;4108020;86;21515;-83
2021/07/25 00:18:02;;;;;;;23.77;16.82;;;;;;;17.17;84.61;98819.14;4243273;83;21090;-83
2021/07/25 00:24:04;;;;;;;23.98;16.55;;;;;;;17.12;85.28;98832.66;4247710;83;21059;-82
2021/07/25 00:30:20;;;;;;;21.97;17.90;;;;;;;17.03;85.06;98822.16;4254905;82;21030;-82
2021/07/25 00:36:21;;;;;;;23.62;17.40;;;;;;;16.83;85.05;98817.18;4249917;83;21577;-82
2021/07/25 00:42:25;;;;;;;22.15;17.60;;;;;;;16.76;85.41;98813.73;4245679;83;22293;-81
2021/07/25 00:55:04;;;;;;;24.43;16.53;;;;;;;16.59;86.55;98801.77;4246889;83;21067;-82
2021/07/25 01:01:17;;;;;;;24.70;17.10;;;;;;;16.55;86.55;98797.51;4242603;84;21083;-82
2021/07/25 01:08:04;;;;;;;23.92;17.65;;;;;;;16.48;86.37;98784.58;4238677;82;21048;-81
2021/07/25 01:14:07;;;;;;;21.77;17.02;;;;;;;16.49;86.62;98788.13;4231154;82;21086;-82
2021/07/25 01:20:11;;;;;;;23.35;17.00;;;;;;;16.62;87.31;98800.14;4226829;84;21047;-82
2021/07/25 01:26:19;;;;;;;21.45;17.25;;;;;;;16.47;86.93;98788.55;4245657;82;21618;-81
2021/07/25 01:32:28;;;;;;;25.60;16.87;;;;;;;16.39;86.96;98789.83;4243195;82;21018;-82
2021/07/25 01:38:35;;;;;;;25.90;16.25;;;;;;;16.26;87.03;98779.17;4242994;84;21074;-82
2021/07/25 01:44:38;;;;;;;24.55;16.67;;;;;;;16.17;87.52;98785.03;4246996;84;21095;-81
2021/07/25 01:57:30;;;;;;;19.95;15.88;;;;;;;16.31;88.36;98788.96;4254818;83;21046;-82
2021/07/25 02:03:44;;;;;;;24.10;16.93;;;;;;;16.32;87.79;98785.78;4254648;83;21547;-82
2021/07/25 02:09:52;;;;;;;21.40;15.35;;;;;;;16.25;87.78;98792.80;4255537;83;21333;-82
2021/07/25 02:15:55;;;;;;;27.45;16.20;;;;;;;16.14;87.76;98791.39;4254408;83;21043;-81
2021/07/25 02:22:12;;;;;;;22.35;17.23;;;;;;;16.08;88.03;98790.30;4249551;83;21717;-81
2021/07/25 02:28:13;;;;;;;20.72;17.30;;;;;;;16.01;88.33;98789.79;4257473;83;21007;-81
2021/07/25 02:34:19;;;;;;;22.65;16.70;;;;;;;16.04;88.85;98792.30;4256442;83;21055;-81
2021/07/25 02:40:35;;;;;;;22.80;16.80;;;;;;;16.07;88.93;98782.59;4246669;83;21047;-80
2021/07/25 02:46:36;;;;;;;24.50;16.80;;;;;;;16.06;88.83;98776.11;4253575;82;21031;-82
2021/07/25 02:52:37;;;;;;;25.92;16.42;;;;;;;16.00;89.10;98777.78;4247561;83;20996;-81
2021/07/25 02:58:38;;;;;;;20.70;13.78;;;;;;;15.98;88.90;98767.16;4231353;84;21051;-82
2021/07/25 03:04:41;;;;;;;18.32;14.83;;;;;;;16.00;89.90;98768.91;4227667;83;21040;-82
2021/07/25 03:10:48;;;;;;;22.40;16.17;;;;;;;16.20;90.01;98775.91;4230664;83;21016;-81
2021/07/25 03:16:49;;;;;;;22.67;16.87;;;;;;;16.14;89.22;98771.47;4233867;84;21004;-81
2021/07/25 03:22:50;;;;;;;24.50;16.35;;;;;;;16.00;89.29;98771.67;4228723;83;21673;-81
2021/07/25 03:28:52;;;;;;;22.25;14.70;;;;;;;15.89;89.41;98773.01;4232543;83;21008;-81
2021/07/25 03:35:06;;;;;;;26.20;16.80;;;;;;;15.75;89.28;98777.34;4227002;84;21032;-81
2021/07/25 03:41:07;;;;;;;20.35;15.13;;;;;;;15.61;90.26;98776.93;4229108;84;21560;-82
2021/07/25 03:47:10;;;;;;;18.55;13.88;;;;;;;15.75;90.26;98789.75;4232333;84;21390;-82
2021/07/25 03:53:15;;;;;;;17.98;12.85;;;;;;;15.94;90.63;98784.97;4231682;82;21047;-82
2021/07/25 03:59:28;;;;;;;17.00;13.93;;;;;;;15.98;90.81;98788.45;4245795;83;21105;-82
2021/07/25 04:05:40;;;;;;;15.13;13.00;;;;;;;15.94;90.43;98793.25;4258159;83;21051;-82
2021/07/25 04:11:41;;;;;;;19.17;14.43;;;;;;;16.00;90.36;98795.73;4163129;83;39897;-82
2021/07/25 04:17:48;;;;;;;19.32;14.33;;;;;;;15.83;90.18;98801.68;4112209;85;21076;-81
2021/07/25 04:23:50;;;;;;;27.27;19.65;;;;;;;15.91;91.14;98806.50;4107072;85;21044;-81
2021/07/25 04:29:52;;;;;;;23.98;18.50;;;;;;;15.93;90.68;98809.02;4104494;86;21142;-81
2021/07/25 04:36:13;;;;;;;22.67;18.37;;;;;;;15.96;90.95;98815.09;4106900;85;21035;-82
2021/07/25 04:42:17;;;;;;;25.00;16.23;;;;;;;16.01;91.30;98809.11;4110897;85;21640;-82
2021/07/25 04:48:39;;;;;;;20.37;15.60;;;;;;;16.03;90.96;98805.34;4109264;86;21071;-82
2021/07/25 04:54:48;;;;;;;19.62;14.83;;;;;;;15.96;91.24;98800.53;4098281;85;21576;-82
2021/07/25 05:00:53;;;;;;;21.82;14.85;;;;;;;15.98;91.33;98793.38;4108035;85;21079;-82
2021/07/25 05:07:01;;;;;;;17.42;13.48;;;;;;;16.00;91.61;98786.86;4110215;86;21012;-83
2021/07/25 05:13:15;;;;;;;17.82;12.58;;;;;;;16.07;91.70;98790.13;4107673;86;21709;-83
2021/07/25 05:19:35;;;;;;;17.77;13.55;;;;;;;16.16;91.57;98782.09;4104151;85;21555;-82
2021/07/25 05:25:44;;;;;;;16.37;11.70;;;;;;;16.28;91.84;98785.66;4105621;85;21711;-82
2021/07/25 05:31:49;;;;;;;17.70;12.53;;;;;;;16.41;91.76;98784.64;4097932;86;22158;-82
2021/07/25 05:37:51;;;;;;;16.73;11.68;;;;;;;16.69;91.97;98777.93;4108159;86;21103;-83
2021/07/25 05:43:53;;;;;;;13.30;10.58;;;;;;;17.10;92.06;98773.63;4107812;86;21051;-83
2021/07/25 05:50:09;;;;;;;16.37;11.88;;;;;;;17.50;91.79;98774.47;4108203;86;21055;-84
2021/07/25 05:56:10;;;;;;;16.87;11.93;;;;;;;17.91;91.96;98774.01;4070476;85;21083;-84
2021/07/25 06:02:12;;;;;;;18.50;11.03;;;;;;;18.25;91.21;98776.59;4042619;86;21052;-84
2021/07/25 06:08:14;;;;;;;14.13;10.72;;;;;;;18.63;90.83;98769.98;4039454;87;21072;-84
2021/07/25 06:14:16;;;;;;;11.85;9.95;;;;;;;18.95;90.44;98789.35;4046120;86;22243;-84
2021/07/25 06:20:18;;;;;;;14.23;11.33;;;;;;;19.19;90.04;98797.64;4042170;86;21111;-83
2021/07/25 06:26:19;;;;;;;13.83;10.13;;;;;;;19.41;89.77;98787.56;4042053;87;21096;-83
2021/07/25 06:32:21;;;;;;;12.73;9.78;;;;;;;19.65;89.01;98787.48;4043968;86;21109;-84
2021/07/25 06:38:23;;;;;;;14.38;10.23;;;;;;;19.97;88.76;98785.14;4041808;86;21180;-85
2021/07/25 06:44:24;;;;;;;13.18;10.23;;;;;;;20.19;88.17;98787.48;4040674;86;21026;-85
2021/07/25 06:50:29;;;;;;;11.43;10.20;;;;;;;20.43;87.72;98783.16;4044278;86;21075;-84
2021/07/25 06:56:31;;;;;;;11.55;10.32;;;;;;;20.71;87.79;98784.23;4063520;86;21119;-84
2021/07/25 07:02:53;;;;;;;11.60;9.73;;;;;;;21.07;87.78;98783.23;4079665;86;21123;-85
2021/07/25 07:08:54;;;;;;;14.15;9.40;;;;;;;21.44;86.71;98771.95;4081143;86;21133;-86
2021/07/25 07:14:55;;;;;;;16.85;10.23;;;;;;;21.79;86.21;98765.73;4081746;86;21099;-84
2021/07/25 07:20:57;;;;;;;15.32;11.12;;;;;;;22.01;86.08;98765.09;4078352;86;21130;-85
2021/07/25 07:26:58;;;;;;;14.00;10.03;;;;;;;22.39;85.78;98765.58;4079963;86;21543;-85
2021/07/25 07:33:12;;;;;;;13.30;9.98;;;;;;;22.95;85.45;98763.27;4083298;86;21055;-85
2021/07/25 07:39:13;;;;;;;11.30;9.23;;;;;;;23.55;84.22;98760.67;4052522;86;22641;-86
2021/07/25 07:45:18;;;;;;;10.98;9.63;;;;;;;24.11;82.55;98765.70;4078978;86;21051;-85
2021/07/25 07:51:18;;;;;;;13.78;9.85;;;;;;;24.72;82.66;98758.77;4080473;86;21090;-87
2021/07/25 07:57:20;;;;;;;9.90;7.90;;;;;;;25.37;82.04;98758.01;4057676;86;21070;-85
2021/07/25 08:03:21;;;;;;;9.15;7.00;;;;;;;26.00;79.52;98760.23;4044388;86;21571;-86
2021/07/25 08:09:22;;;;;;;7.58;6.78;;;;;;;26.56;77.58;98758.32;4042780;86;21052;-88
2021/07/25 08:15:24;;;;;;;8.18;7.20;;;;;;;26.90;76.10;98753.34;4043403;86;21123;-86
2021/07/25 08:21:25;;;;;;;8.45;7.40;;;;;;;27.13;74.48;98751.73;4043180;86;21579;-87
2021/07/25 08:27:26;;;;;;;7.28;6.58;;;;;;;27.30;73.32;98754.13;4044666;86;21075;-87
2021/07/25 08:33:28;;;;;;;7.60;6.17;;;;;;;27.39;71.74;98763.06;4045601;86;21099;-89
2021/07/25 08:39:30;;;;;;;7.80;6.37;;;;;;;27.59;69.92;98759.56;4042511;86;21064;-86
2021/07/25 08:45:34;;;;;;;7.78;6.75;;;;;;;27.82;64.96;98756.98;4043743;86;21091;-89
2021/07/25 08:51:41;;;;;;;8.40;6.40;;;;;;;27.72;63.47;98764.05;4046576;86;21092;-87
2021/07/25 08:57:47;;;;;;;7.35;6.45;;;;;;;28.02;63.27;98759.13;4044072;86;21075;-87
2021/07/25 09:03:48;;;;;;;6.60;5.80;;;;;;;28.02;52.14;98762.59;3938150;88;21074;-86
2021/07/25 09:10:04;;;;;;;7.45;6.37;;;;;;;27.95;57.25;98763.80;3940352;89;21055;-86
2021/07/25 09:16:06;;;;;;;7.75;6.95;;;;;;;27.73;53.10;98771.99;4053904;86;21756;-86
2021/07/25 09:22:13;;;;;;;9.23;6.17;;;;;;;27.43;55.47;98774.23;4057512;86;21583;-88
2021/07/25 09:28:19;;;;;;;7.47;6.33;;;;;;;27.12;56.61;98772.67;4056900;85;21092;-87
2021/07/25 09:34:39;;;;;;;9.18;6.20;;;;;;;26.97;56.89;98779.62;4047045;86;21140;-87
2021/07/25 09:40:44;;;;;;;7.47;6.58;;;;;;;26.88;56.01;98776.92;4044511;86;21586;-87
2021/07/25 09:46:49;;;;;;;8.95;6.70;;;;;;;26.76;56.13;98783.03;4043468;87;21005;-87
2021/07/25 09:52:55;;;;;;;7.20;6.50;;;;;;;26.61;55.59;98792.73;4044512;86;21064;-86
2021/07/25 09:59:00;;;;;;;11.48;6.78;;;;;;;26.59;55.61;98791.81;4021417;86;21095;-86
2021/07/25 10:05:13;;;;;;;7.20;6.47;;;;;;;26.51;56.17;98788.48;4038582;86;21103;-85
2021/07/25 10:11:19;;;;;;;10.53;7.03;;;;;;;26.29;55.59;98793.11;4042789;87;21100;-85
2021/07/25 10:17:21;;;;;;;8.95;7.05;;;;;;;26.12;55.52;98798.42;4047502;87;21115;-86
2021/07/25 10:23:31;;;;;;;8.65;7.12;;;;;;;25.84;55.73;98813.95;4039082;86;21095;-84
2021/07/25 10:29:35;;;;;;;13.40;7.75;;;;;;;25.77;56.88;98807.95;4037104;86;21068;-86
2021/07/25 10:35:37;;;;;;;10.25;7.78;;;;;;;25.89;57.82;98813.91;4040399;86;21556;-85
2021/07/25 10:42:05;;;;;;;11.55;8.05;;;;;;;25.96;57.71;98821.95;4040210;86;21096;-84
2021/07/25 10:48:26;;;;;;;9.00;7.55;;;;;;;26.02;57.22;98820.05;4041887;86;21079;-85
2021/07/25 10:54:31;;;;;;;9.88;8.30;;;;;;;25.91;57.76;98824.02;3895597;90;21138;-84
2021/07/25 11:07:26;;;;;;;9.80;8.75;;;;;;;25.63;57.92;98832.53;3945697;89;21115;-85
2021/07/25 11:13:51;;;;;;;12.00;9.00;;;;;;;25.62;59.10;98834.55;3879004;89;21167;-84
2021/07/25 11:20:06;;;;;;;9.88;8.58;;;;;;;25.52;59.72;98837.30;3831678;91;21568;-85
2021/07/25 11:26:52;;;;;;;11.18;9.38;;;;;;;25.42;59.94;98841.41;3918175;89;21139;-85
2021/07/25 11:32:54;;;;;;;10.43;9.13;;;;;;;25.32;59.72;98844.12;3912609;89;21071;-85
2021/07/25 11:39:13;;;;;;;9.88;8.75;;;;;;;25.16;60.09;98845.14;3920404;89;21205;-84
2021/07/25 11:45:14;;;;;;;9.48;8.45;;;;;;;24.91;61.04;98847.00;4046550;86;21132;-85
2021/07/25 11:51:44;;;;;;;9.35;8.38;;;;;;;24.68;61.57;98852.08;4052610;87;21240;-85
2021/07/25 11:57:45;;;;;;;10.00;8.58;;;;;;;24.62;61.72;98853.94;4042792;87;21109;-84
2021/07/25 12:03:48;;;;;;;7.67;6.90;;;;;;;24.45;61.32;98825.40;4033000;86;21032;-86
2021/07/25 12:10:05;;;;;;;9.15;7.08;;;;;;;24.70;55.61;98867.00;4031811;86;21084;-85
2021/07/25 12:16:12;;;;;;;12.47;7.35;;;;;;;24.64;57.07;98866.84;4035563;88;21000;-85
2021/07/25 12:22:19;;;;;;;7.53;6.53;;;;;;;24.57;57.12;98877.61;4036940;88;22281;-84
2021/07/25 12:28:23;;;;;;;8.15;6.30;;;;;;;24.44;57.66;98874.22;4031471;86;21020;-85
2021/07/25 12:34:24;;;;;;;7.10;6.37;;;;;;;24.25;57.28;98869.30;4034804;86;21039;-85
2021/07/25 12:40:44;;;;;;;7.75;6.95;;;;;;;24.17;56.55;98865.88;4034909;87;21036;-84
2021/07/25 12:46:47;;;;;;;7.92;6.97;;;;;;;24.13;57.32;98863.24;4032020;86;21127;-85
2021/07/25 12:53:24;;;;;;;7.80;7.00;;;;;;;24.07;58.25;98860.92;4034366;86;21085;-85
2021/07/25 12:59:26;;;;;;;8.45;7.40;;;;;;;23.99;57.60;98853.34;4028914;86;21638;-85
2021/07/25 13:12:05;;;;;;;10.60;7.20;;;;;;;23.90;59.15;98849.89;4079521;86;21083;-85
2021/07/25 13:18:21;;;;;;;8.48;7.58;;;;;;;23.83;60.29;98845.25;4080747;86;21063;-85
2021/07/25 13:24:23;;;;;;;9.67;8.13;;;;;;;23.80;60.36;98842.78;4078490;86;21094;-84
2021/07/25 13:30:33;;;;;;;11.73;8.15;;;;;;;23.72;61.27;98845.73;4080704;86;21107;-86
2021/07/25 13:36:34;;;;;;;9.03;7.35;;;;;;;23.57;61.93;98851.01;4080522;86;21550;-84
2021/07/25 13:42:35;;;;;;;10.80;8.35;;;;;;;23.40;62.58;98840.74;4080148;86;21764;-83
2021/07/25 13:48:42;;;;;;;9.65;8.05;;;;;;;22.92;62.94;98817.84;4081733;86;21815;-84
2021/07/25 13:55:05;;;;;;;9.58;8.58;;;;;;;22.57;64.51;98833.21;4079044;86;21122;-84
2021/07/25 14:01:08;;;;;;;9.88;8.25;;;;;;;22.43;65.34;98819.80;4057002;86;21602;-84
2021/07/25 14:07:09;;;;;;;11.88;8.93;;;;;;;22.32;65.39;98812.46;4050393;86;21080;-84
2021/07/25 14:13:10;;;;;;;10.25;8.73;;;;;;;22.27;66.37;98793.56;4049651;86;21567;-84
2021/07/25 14:19:15;;;;;;;10.05;8.93;;;;;;;22.26;66.76;98794.17;4050645;86;21135;-83
2021/07/25 14:25:17;;;;;;;9.88;8.58;;;;;;;22.29;66.51;98789.06;4051669;86;21036;-84
2021/07/25 14:31:20;;;;;;;11.00;9.05;;;;;;;22.28;66.58;98774.98;4050414;86;21091;-84
2021/07/25 14:37:21;;;;;;;10.78;9.38;;;;;;;22.27;67.11;98774.80;4051210;86;21041;-82
2021/07/25 14:43:24;;;;;;;11.15;8.55;;;;;;;22.22;67.58;98775.42;4049090;86;21060;-85
2021/07/25 14:49:25;;;;;;;9.70;8.65;;;;;;;22.19;67.79;98776.31;4050071;86;21051;-84
2021/07/25 14:55:27;;;;;;;11.38;9.70;;;;;;;22.21;68.12;98775.24;3977234;89;21004;-84
2021/07/25 15:01:33;;;;;;;12.63;9.30;;;;;;;22.18;68.42;98765.62;4048511;86;21670;-83
2021/07/25 15:07:50;;;;;;;10.32;9.05;;;;;;;22.17;68.62;98759.89;4032203;87;21048;-84
2021/07/25 15:14:15;;;;;;;10.03;8.88;;;;;;;22.19;68.91;98763.77;4035243;86;21072;-84
2021/07/25 15:27:21;;;;;;;12.30;9.18;;;;;;;22.15;69.31;98753.98;4030762;87;21052;-83
2021/07/25 15:33:22;;;;;;;11.10;8.40;;;;;;;22.15;69.60;98746.41;4032835;86;21088;-84
2021/07/25 15:39:37;;;;;;;11.63;8.73;;;;;;;22.21;69.56;98741.78;4029487;86;21056;-84
2021/07/25 15:45:38;;;;;;;10.43;9.23;;;;;;;22.30;69.76;98736.23;4029981;86;21076;-84
2021/07/25 15:51:41;;;;;;;11.00;8.75;;;;;;;22.39;70.02;98723.74;4029963;86;21085;-83
2021/07/25 15:57:42;;;;;;;9.85;8.58;;;;;;;22.46;69.67;98712.28;4031177;86;36689;-86
2021/07/25 16:03:44;;;;;;;8.40;7.30;;;;;;;22.54;69.61;98710.00;4114890;85;21077;-84
2021/07/25 16:09:48;;;;;;;8.68;6.97;;;;;;;22.54;69.40;98704.42;4095356;86;21125;-85
2021/07/25 16:15:49;;;;;;;8.53;6.58;;;;;;;22.52;69.18;98702.73;4107155;86;21081;-84
2021/07/25 16:21:51;;;;;;;11.78;6.90;;;;;;;22.51;68.93;98697.77;4026465;86;21048;-84
2021/07/25 16:28:14;;;;;;;9.28;6.45;;;;;;;22.53;68.86;98692.51;4111471;86;21002;-83
2021/07/25 16:34:15;;;;;;;8.23;6.80;;;;;;;22.57;68.88;98683.97;4070715;86;21583;-83
2021/07/25 16:40:16;;;;;;;9.63;6.92;;;;;;;22.61;68.72;98679.03;4128512;84;21643;-84
2021/07/25 16:46:18;;;;;;;9.20;7.05;;;;;;;22.61;68.83;98681.22;4124675;86;20998;-85
2021/07/25 16:52:19;;;;;;;10.30;7.42;;;;;;;22.58;68.74;98682.11;4125969;86;21035;-84
2021/07/25 16:58:25;;;;;;;8.45;6.42;;;;;;;22.58;68.68;98676.53;4123060;84;21132;-85
2021/07/25 17:11:59;;;;;;;10.08;6.45;;;;;;;22.50;68.43;98671.09;4100632;87;21022;-84
2021/07/25 17:18:09;;;;;;;9.28;7.42;;;;;;;22.44;68.59;98667.98;4040974;85;21475;-84
2021/07/25 17:24:12;;;;;;;10.72;7.62;;;;;;;22.39;68.60;98667.19;4077778;86;21540;-84
2021/07/25 17:30:14;;;;;;;8.58;7.22;;;;;;;22.33;68.71;98664.21;4086165;86;21025;-84
2021/07/25 17:36:29;;;;;;;8.48;6.53;;;;;;;22.28;68.64;98663.45;4096369;86;21009;-85
2021/07/25 17:42:31;;;;;;;10.60;8.47;;;;;;;22.23;68.65;98664.05;4017463;86;21645;-82
2021/07/25 17:49:09;;;;;;;12.07;8.78;;;;;;;22.12;68.79;98651.16;4099876;85;21984;-84
2021/07/25 17:55:16;;;;;;;12.90;8.35;;;;;;;22.01;69.21;98648.03;4074439;86;21067;-84
2021/07/25 18:01:35;;;;;;;9.60;7.60;;;;;;;21.85;69.84;98636.37;4109550;85;21104;-84
2021/07/25 18:07:38;;;;;;;8.50;7.58;;;;;;;21.78;70.22;98640.81;4174243;85;21041;-84
2021/07/25 18:21:31;;;;;;;15.63;8.30;;;;;;;21.48;71.09;98628.42;4173624;85;21061;-84
2021/07/25 18:27:33;;;;;;;12.10;8.38;;;;;;;21.32;71.88;98634.20;4117530;84;21010;-84
2021/07/25 18:33:47;;;;;;;15.80;8.88;;;;;;;21.18;72.09;98620.81;3999542;84;10000038;-84
2021/07/25 18:40:04;;;;;;;9.75;7.85;;;;;;;21.06;72.48;98631.41;4115280;85;20982;-84
2021/07/25 18:46:17;;;;;;;13.35;8.60;;;;;;;20.90;73.08;98637.91;4137612;84;21054;-84
2021/07/25 18:52:19;;;;;;;13.50;8.43;;;;;;;20.75;73.37;98642.41;4148662;85;21001;-85
2021/07/25 18:58:21;;;;;;;23.32;8.88;;;;;;;20.65;73.63;98647.75;4126337;85;21492;-84
2021/07/25 19:05:00;;;;;;;16.17;8.63;;;;;;;20.54;74.47;98650.72;4066104;85;21551;-84
2021/07/25 19:11:04;;;;;;;10.80;8.20;;;;;;;20.43;75.20;98665.00;4077887;85;21135;-84
2021/07/25 19:17:14;;;;;;;15.70;9.10;;;;;;;20.30;75.34;98679.52;4075951;85;21622;-84
2021/07/25 19:23:15;;;;;;;12.30;9.13;;;;;;;20.13;75.58;98677.50;4069157;86;21161;-82
2021/07/25 19:29:17;;;;;;;12.53;9.30;;;;;;;20.01;76.10;98686.56;4064483;86;21092;-85
2021/07/25 19:35:41;;;;;;;11.35;9.73;;;;;;;19.92;76.46;98678.76;4085873;86;21498;-84
2021/07/25 19:41:55;;;;;;;13.30;10.58;;;;;;;19.74;76.77;98672.36;4064123;86;21051;-84
2021/07/25 19:47:59;;;;;;;14.13;9.65;;;;;;;19.64;77.21;98660.95;4083258;86;21696;-84
2021/07/25 19:54:01;;;;;;;16.15;10.68;;;;;;;19.54;77.69;98661.28;4074441;86;21004;-85
2021/07/25 20:00:08;;;;;;;16.15;10.48;;;;;;;19.42;78.05;98652.34;4086740;86;22191;-84
2021/07/25 20:06:12;;;;;;;12.85;8.70;;;;;;;19.35;78.36;98640.05;4077652;86;21015;-83
2021/07/25 20:12:20;;;;;;;15.00;10.75;;;;;;;19.24;78.84;98634.78;4087889;85;21046;-82
2021/07/25 20:18:41;;;;;;;18.48;10.70;;;;;;;19.13;79.08;98643.23;4056549;85;21107;-83
2021/07/25 20:24:43;;;;;;;19.48;10.72;;;;;;;19.18;79.70;98637.15;4059371;85;21089;-84
2021/07/25 20:30:44;;;;;;;16.77;10.60;;;;;;;19.14;80.06;98653.13;4060229;86;21115;-85
2021/07/25 20:36:49;;;;;;;15.40;11.55;;;;;;;19.18;80.30;98641.31;4079500;86;21026;-83
2021/07/25 20:42:54;;;;;;;17.23;12.25;;;;;;;19.12;80.35;98643.08;4079026;86;21082;-84
2021/07/25 20:49:09;;;;;;;14.70;9.70;;;;;;;19.08;80.51;98638.22;4069024;86;21074;-85
2021/07/25 20:55:12;;;;;;;24.47;10.75;;;;;;;19.08;81.09;98638.22;4065832;86;21022;-82
2021/07/25 21:01:14;;;;;;;17.92;11.57;;;;;;;19.14;81.27;98640.02;4085665;86;21696;-84
2021/07/25 21:07:25;;;;;;;17.12;11.33;;;;;;;19.13;81.03;98646.80;4048220;84;21058;-83
2021/07/25 21:13:29;;;;;;;17.27;12.05;;;;;;;18.96;81.14;98627.88;4114037;84;21105;-83
2021/07/25 21:19:33;;;;;;;14.55;10.48;;;;;;;18.81;81.71;98624.71;4114658;86;21124;-82
2021/07/25 21:25:35;;;;;;;17.75;11.25;;;;;;;18.82;82.05;98624.12;4115210;86;21098;-83
2021/07/25 21:31:36;;;;;;;16.48;11.83;;;;;;;18.81;82.29;98616.39;4134088;86;21057;-83
2021/07/25 21:37:38;;;;;;;14.90;9.88;;;;;;;18.68;82.62;98603.88;4130569;85;21037;-84
2021/07/25 21:43:39;;;;;;;19.75;10.30;;;;;;;18.69;82.71;98594.36;4113667;84;21019;-83
2021/07/25 21:49:42;;;;;;;13.80;10.08;;;;;;;18.70;83.24;98593.13;4132848;86;21023;-84
2021/07/25 21:55:47;;;;;;;16.67;10.48;;;;;;;18.73;83.39;98592.09;4125023;86;21084;-84
2021/07/25 22:02:11;;;;;;;21.80;10.43;;;;;;;18.81;83.54;98590.05;4122022;84;21120;-84
2021/07/25 22:08:16;;;;;;;16.80;9.35;;;;;;;18.84;83.97;98574.55;4086086;87;21085;-84
2021/07/25 22:14:27;;;;;;;12.65;8.93;;;;;;;18.97;84.10;98565.03;4088276;86;21038;-83
2021/07/25 22:20:34;;;;;;;18.50;9.43;;;;;;;18.98;84.08;98564.43;4076437;87;21065;-85
2021/07/25 22:27:00;;;;;;;16.40;9.83;;;;;;;18.96;84.37;98555.16;4089844;86;21052;-84
2021/07/25 22:33:07;;;;;;;17.77;9.85;;;;;;;18.96;84.46;98581.52;4084049;87;21107;-82
2021/07/25 22:39:10;;;;;;;14.20;9.28;;;;;;;19.06;84.72;98584.57;4082615;86;21269;-82
2021/07/25 22:45:13;;;;;;;17.32;10.68;;;;;;;18.99;84.94;98586.18;4083800;87;21030;-81
2021/07/25 22:51:16;;;;;;;14.30;10.78;;;;;;;18.97;85.13;98576.13;4078513;87;21103;-82
2021/07/25 22:57:18;;;;;;;20.43;10.53;;;;;;;18.81;85.48;98578.20;4083660;85;21023;-81
2021/07/25 23:03:19;;;;;;;15.05;10.65;;;;;;;18.69;86.04;98578.32;4106642;85;21096;-81
2021/07/25 23:09:32;;;;;;;16.12;11.05;;;;;;;18.67;86.34;98596.78;4129552;84;21045;-81
2021/07/25 23:15:34;;;;;;;16.10;10.15;;;;;;;18.51;86.82;98623.78;4134497;85;21049;-81
2021/07/25 23:21:40;;;;;;;18.40;11.55;;;;;;;18.57;87.46;98647.73;4118232;86;21069;-82
2021/07/25 23:27:44;;;;;;;17.48;10.28;;;;;;;18.57;87.26;98651.13;4107517;84;22292;-82
2021/07/25 23:33:46;;;;;;;15.38;10.80;;;;;;;18.61;87.97;98667.84;4121906;86;21006;-82
2021/07/25 23:39:57;;;;;;;16.90;12.20;;;;;;;18.68;88.13;98690.45;4109943;86;21139;-81
2021/07/25 23:46:05;;;;;;;14.87;11.97;;;;;;;18.64;88.31;98678.05;4131268;84;21680;-83
2021/07/25 23:52:08;;;;;;;19.98;12.65;;;;;;;18.50;89.21;98683.97;4120104;83;21038;-83
2021/07/25 23:58:09;;;;;;;16.90;12.70;;;;;;;18.56;89.03;98673.12;4113538;86;21054;-82
